| time (UTC) | temp F | wind direction | speed MPH | gust MPH | rain 1hr in | rain 24hr in | rain mn in | humidity % | barometer mb |
| 20260507130519 | 69 | 4 | 4.0 | 9.0 | 0.00 | 0.00 | 0.00 | 29 | 1011.1 |
| 20260507125450 | 69 | 10 | 5.0 | 9.0 | 0.00 | 0.00 | 0.00 | 29 | 1011.1 |
| 20260507124441 | 68 | 335 | 4.0 | 9.0 | 0.00 | 0.00 | 0.00 | 29 | 1011.1 |
| 20260507123436 | 68 | 326 | 4.0 | 8.0 | 0.00 | 0.00 | 0.00 | 29 | 1011.2 |
| 20260507122430 | 68 | 334 | 3.0 | 8.0 | 0.00 | 0.00 | 0.00 | 29 | 1011.1 |
| 20260507121455 | 69 | 336 | 3.0 | 10.0 | 0.00 | 0.00 | 0.00 | 29 | 1011.0 |
| 20260507120432 | 69 | 331 | 4.0 | 10.0 | 0.00 | 0.00 | 0.00 | 28 | 1010.9 |
| 20260507114323 | 69 | 351 | 4.0 | 8.0 | 0.00 | 0.00 | 0.00 | 28 | 1011.0 |
| 20260507113330 | 69 | 334 | 4.0 | 8.0 | 0.00 | 0.00 | 0.00 | 28 | 1010.9 |
| 20260507111141 | 69 | 336 | 4.0 | 7.0 | 0.00 | 0.00 | 0.00 | 28 | 1011.0 |
| 20260507105018 | 68 | 328 | 1.0 | 6.0 | 0.00 | 0.00 | 0.00 | 29 | 1011.2 |
| 20260507104019 | 69 | 324 | 2.0 | 6.0 | 0.00 | 0.00 | 0.00 | 29 | 1011.3 |
| 20260507102948 | 69 | 336 | 2.0 | 5.0 | 0.00 | 0.00 | 0.00 | 28 | 1011.3 |
| 20260507100917 | 69 | 324 | 1.0 | 2.0 | 0.00 | 0.00 | 0.00 | 29 | 1011.4 |
| 20260507093610 | 69 | 324 | 2.0 | 3.0 | 0.00 | 0.00 | 0.00 | 28 | 1011.6 |
| 20260507091521 | 70 | 325 | 1.0 | 4.0 | 0.00 | 0.00 | 0.00 | 29 | 1011.7 |
| 20260507090529 | 70 | 327 | 1.0 | 3.0 | 0.00 | 0.00 | 0.00 | 29 | 1011.8 |
| 20260507085522 | 70 | 332 | 0.0 | 2.0 | 0.00 | 0.00 | 0.00 | 29 | 1011.8 |
| 20260507084537 | 70 | 327 | 1.0 | 2.0 | 0.00 | 0.00 | 0.00 | 29 | 1011.9 |
| 20260507082325 | 71 | 332 | 0.0 | 3.0 | 0.00 | 0.00 | 0.00 | 28 | 1012.0 |
| 20260507080146 | 71 | 327 | 1.0 | 4.0 | 0.00 | 0.00 | 0.00 | 27 | 1012.2 |
| 20260507075152 | 71 | 328 | 2.0 | 4.0 | 0.00 | 0.00 | 0.00 | 27 | 1012.2 |
| 20260507074154 | 71 | 329 | 1.0 | 2.0 | 0.00 | 0.00 | 0.00 | 27 | 1012.2 |
| 20260507073143 | 71 | 329 | 1.0 | 4.0 | 0.00 | 0.00 | 0.00 | 27 | 1012.2 |
| 20260507072110 | 72 | 330 | 1.0 | 4.0 | 0.00 | 0.00 | 0.00 | 28 | 1012.1 |
| 20260507071058 | 71 | 322 | 0.0 | 3.0 | 0.00 | 0.00 | 0.00 | 29 | 1012.0 |
| 20260507070100 | 71 | 319 | 0.0 | 0.0 | 0.00 | 0.00 | 0.00 | 31 | 1012.1 |
| 20260507065118 | 71 | 319 | 0.0 | 0.0 | 0.00 | 0.00 | 0.00 | 31 | 1012.1 |
| 20260507061745 | 72 | 319 | 0.0 | 0.0 | 0.00 | 0.00 | 0.00 | 29 | 1011.9 |
| 20260507060751 | 72 | 319 | 0.0 | 0.0 | 0.00 | 0.00 | 0.00 | 29 | 1012.0 |
| 20260507055749 | 73 | 319 | 0.0 | 0.0 | 0.00 | 0.00 | 0.00 | 27 | 1011.9 |
| 20260507054813 | 73 | 319 | 0.0 | 0.0 | 0.00 | 0.00 | 0.00 | 27 | 1011.9 |
| 20260507053808 | 72 | 319 | 0.0 | 0.0 | 0.00 | 0.00 | 0.00 | 28 | 1011.9 |
| 20260507052740 | 72 | 319 | 0.0 | 0.0 | 0.00 | 0.00 | 0.00 | 30 | 1011.9 |
| 20260507051736 | 72 | 320 | 0.0 | 0.0 | 0.00 | 0.00 | 0.00 | 29 | 1011.9 |
| 20260507050738 | 73 | 319 | 0.0 | 0.0 | 0.00 | 0.00 | 0.00 | 27 | 1011.9 |
| 20260507043458 | 76 | 320 | 0.0 | 1.0 | 0.00 | 0.00 | 0.00 | 25 | 1011.7 |
| 20260507042442 | 76 | 323 | 0.0 | 0.0 | 0.00 | 0.00 | 0.00 | 24 | 1011.5 |
| 20260507041413 | 77 | 323 | 0.0 | 0.0 | 0.00 | 0.00 | 0.00 | 24 | 1011.4 |
| 20260507040436 | 77 | 323 | 0.0 | 1.0 | 0.00 | 0.00 | 0.00 | 22 | 1011.3 |
| 20260507035442 | 77 | 319 | 0.0 | 1.0 | 0.00 | 0.00 | 0.00 | 23 | 1011.2 |
| 20260507034458 | 77 | 322 | 0.0 | 0.0 | 0.00 | 0.00 | 0.00 | 22 | 1011.1 |
| 20260507033440 | 77 | 324 | 0.0 | 0.0 | 0.00 | 0.00 | 0.00 | 22 | 1011.0 |
| 20260507032425 | 78 | 324 | 0.0 | 0.0 | 0.00 | 0.00 | 0.00 | 22 | 1010.9 |
| 20260507021806 | 81 | 322 | 1.0 | 4.0 | 0.00 | 0.00 | 0.00 | 18 | 1010.1 |
| 20260507020814 | 82 | 322 | 0.0 | 2.0 | 0.00 | 0.00 | 0.00 | 18 | 1010.0 |
| 20260507015809 | 83 | 319 | 2.0 | 6.0 | 0.00 | 0.00 | 0.00 | 17 | 1009.9 |
| 20260507013652 | 84 | 333 | 3.0 | 6.0 | 0.00 | 0.00 | 0.00 | 16 | 1009.9 |
| 20260507012648 | 84 | 324 | 2.0 | 6.0 | 0.00 | 0.00 | 0.00 | 16 | 1009.9 |
| 20260507011705 | 85 | 319 | 1.0 | 4.0 | 0.00 | 0.00 | 0.00 | 16 | 1009.9 |
| 20260507010729 | 85 | 319 | 2.0 | 4.0 | 0.00 | 0.00 | 0.00 | 16 | 1009.9 |
| 20260507005740 | 85 | 320 | 1.0 | 5.0 | 0.00 | 0.00 | 0.00 | 16 | 1010.0 |
| 20260507004734 | 84 | 323 | 3.0 | 9.0 | 0.00 | 0.00 | 0.00 | 16 | 1009.9 |
| 20260507003741 | 85 | 331 | 2.0 | 9.0 | 0.00 | 0.00 | 0.00 | 16 | 1009.8 |
| 20260507002735 | 85 | 325 | 3.0 | 8.0 | 0.00 | 0.00 | 0.00 | 16 | 1009.8 |
| 20260507001730 | 85 | 321 | 1.0 | 8.0 | 0.00 | 0.00 | 0.00 | 17 | 1009.9 |
| 20260506235550 | 85 | 328 | 2.0 | 7.0 | 0.00 | 0.00 | 0.00 | 17 | 1009.9 |
| 20260506234522 | 85 | 330 | 2.0 | 9.0 | 0.00 | 0.00 | 0.00 | 17 | 1009.9 |
| 20260506231320 | 85 | 322 | 2.0 | 7.0 | 0.00 | 0.00 | 0.00 | 17 | 1010.1 |
| 20260506230256 | 85 | 317 | 1.0 | 7.0 | 0.00 | 0.00 | 0.00 | 16 | 1010.3 |
| 20260506225308 | 85 | 319 | 2.0 | 7.0 | 0.00 | 0.00 | 0.00 | 16 | 1010.4 |
| 20260506224318 | 84 | 317 | 2.0 | 8.0 | 0.00 | 0.00 | 0.00 | 17 | 1010.6 |
| 20260506223259 | 84 | 317 | 2.0 | 8.0 | 0.00 | 0.00 | 0.00 | 18 | 1010.6 |
| 20260506222309 | 83 | 317 | 2.0 | 6.0 | 0.00 | 0.00 | 0.00 | 18 | 1010.8 |
| 20260506220151 | 83 | 330 | 3.0 | 9.0 | 0.00 | 0.00 | 0.00 | 18 | 1011.1 |
| 20260506215154 | 82 | 316 | 3.0 | 8.0 | 0.00 | 0.00 | 0.00 | 18 | 1011.2 |
| 20260506214150 | 82 | 315 | 4.0 | 7.0 | 0.00 | 0.00 | 0.00 | 19 | 1011.4 |
| 20260506213126 | 82 | 316 | 3.0 | 7.0 | 0.00 | 0.00 | 0.00 | 19 | 1011.6 |
| 20260506212128 | 82 | 317 | 2.0 | 6.0 | 0.00 | 0.00 | 0.00 | 18 | 1011.7 |
| 20260506211146 | 83 | 319 | 1.0 | 7.0 | 0.00 | 0.00 | 0.00 | 19 | 1011.9 |
| 20260506210131 | 82 | 318 | 2.0 | 8.0 | 0.00 | 0.00 | 0.00 | 19 | 1012.1 |
| 20260506205155 | 83 | 319 | 1.0 | 10.0 | 0.00 | 0.00 | 0.00 | 19 | 1012.2 |
| 20260506204123 | 82 | 327 | 3.0 | 10.0 | 0.00 | 0.00 | 0.00 | 19 | 1012.4 |
| 20260506201923 | 81 | 315 | 2.0 | 10.0 | 0.00 | 0.00 | 0.00 | 20 | 1012.6 |
| 20260506200917 | 80 | 318 | 4.0 | 11.0 | 0.00 | 0.00 | 0.00 | 20 | 1012.7 |
| 20260506195910 | 80 | 341 | 5.0 | 11.0 | 0.00 | 0.00 | 0.00 | 21 | 1012.8 |
| 20260506194844 | 80 | 315 | 2.0 | 10.0 | 0.00 | 0.00 | 0.00 | 21 | 1012.9 |
| 20260506193850 | 80 | 338 | 3.0 | 9.0 | 0.00 | 0.00 | 0.00 | 21 | 1013.0 |
| 20260506191759 | 80 | 126 | 2.0 | 6.0 | 0.00 | 0.00 | 0.00 | 21 | 1013.3 |
| 20260506190824 | 80 | 316 | 1.0 | 7.0 | 0.00 | 0.00 | 0.00 | 22 | 1013.3 |
| 20260506185809 | 79 | 336 | 2.0 | 7.0 | 0.00 | 0.00 | 0.00 | 21 | 1013.5 |
| 20260506183603 | 78 | 318 | 1.0 | 11.0 | 0.00 | 0.00 | 0.00 | 23 | 1013.8 |
| 20260506182617 | 77 | 316 | 3.0 | 11.0 | 0.00 | 0.00 | 0.00 | 24 | 1013.9 |
| 20260506181612 | 77 | 332 | 2.0 | 8.0 | 0.00 | 0.00 | 0.00 | 26 | 1014.1 |
| 20260506180630 | 76 | 316 | 2.0 | 7.0 | 0.00 | 0.00 | 0.00 | 27 | 1014.2 |
| 20260506175629 | 76 | 345 | 1.0 | 7.0 | 0.00 | 0.00 | 0.00 | 26 | 1014.2 |
| 20260506174628 | 76 | 320 | 2.0 | 7.0 | 0.00 | 0.00 | 0.00 | 28 | 1014.3 |
| 20260506173648 | 76 | 326 | 1.0 | 5.0 | 0.00 | 0.00 | 0.00 | 27 | 1014.3 |
| 20260506172654 | 75 | 327 | 2.0 | 7.0 | 0.00 | 0.00 | 0.00 | 28 | 1014.3 |
| 20260506171624 | 75 | 319 | 2.0 | 7.0 | 0.00 | 0.00 | 0.00 | 27 | 1014.4 |
| 20260506170640 | 74 | 318 | 1.0 | 4.0 | 0.00 | 0.00 | 0.00 | 27 | 1014.3 |
| 20260506165644 | 74 | 320 | 1.0 | 4.0 | 0.00 | 0.00 | 0.00 | 29 | 1014.3 |
| 20260506164644 | 73 | 319 | 1.0 | 5.0 | 0.00 | 0.00 | 0.00 | 29 | 1014.3 |
| 20260506163657 | 73 | 317 | 1.0 | 5.0 | 0.00 | 0.00 | 0.00 | 29 | 1014.2 |
| 20260506162708 | 73 | 329 | 0.0 | 4.0 | 0.00 | 0.00 | 0.00 | 28 | 1014.3 |
| 20260506161653 | 73 | 326 | 0.0 | 4.0 | 0.00 | 0.00 | 0.00 | 28 | 1014.2 |
| 20260506160645 | 72 | 122 | 0.0 | 4.0 | 0.00 | 0.00 | 0.00 | 30 | 1014.2 |
| 20260506155649 | 71 | 322 | 0.0 | 3.0 | 0.00 | 0.00 | 0.00 | 31 | 1014.2 |
| 20260506153537 | 71 | 322 | 0.0 | 3.0 | 0.00 | 0.00 | 0.00 | 31 | 1014.3 |
| 20260506152556 | 70 | 324 | 0.0 | 1.0 | 0.00 | 0.00 | 0.00 | 32 | 1014.3 |
| 20260506150458 | 69 | 327 | 0.0 | 2.0 | 0.00 | 0.00 | 0.00 | 34 | 1014.3 |
| 20260506144328 | 68 | 127 | 0.0 | 2.0 | 0.00 | 0.00 | 0.00 | 35 | 1014.1 |
| 20260506143347 | 67 | 324 | 1.0 | 4.0 | 0.00 | 0.00 | 0.00 | 36 | 1014.1 |
| 20260506142330 | 66 | 125 | 1.0 | 4.0 | 0.00 | 0.00 | 0.00 | 37 | 1014.0 |
| 20260506135047 | 63 | 123 | 1.0 | 5.0 | 0.00 | 0.00 | 0.00 | 44 | 1013.5 |
| 20260506132952 | 62 | 324 | 0.0 | 1.0 | 0.00 | 0.00 | 0.00 | 48 | 1013.4 |
| 20260506130827 | 59 | 321 | 0.0 | 0.0 | 0.00 | 0.00 | 0.00 | 53 | 1013.2 |